sensor_id;sensor_type;location;lat;lon;timestamp;pressure;altitude;pressure_sealevel;temperature;humidity
53699;BME280;39591;53.952;27.612;2022-09-21T00:03:45;1009.4;;;12.3;74
53699;BME280;39591;53.952;27.612;2022-09-21T00:08:23;1009.4;;;12.3;74
53699;BME280;39591;53.952;27.612;2022-09-21T00:13:59;1009.4;;;12.4;73.6
53699;BME280;39591;53.952;27.612;2022-09-21T00:19:05;1009.4;;;12.3;73.7
53699;BME280;39591;53.952;27.612;2022-09-21T00:23:57;1009.5;;;12.3;73.6
53699;BME280;39591;53.952;27.612;2022-09-21T00:29:07;1009.5;;;12.1;73.8
53699;BME280;39591;53.952;27.612;2022-09-21T00:34:05;1009.5;;;11.9;73.8
53699;BME280;39591;53.952;27.612;2022-09-21T00:39:05;1009.5;;;11.8;74
53699;BME280;39591;53.952;27.612;2022-09-21T00:43:35;1009.5;;;11.7;74.1
53699;BME280;39591;53.952;27.612;2022-09-21T00:48:33;1009.5;;;11.6;74.3
53699;BME280;39591;53.952;27.612;2022-09-21T00:53:37;1009.5;;;11.5;74.2
53699;BME280;39591;53.952;27.612;2022-09-21T00:58:55;1009.5;;;11.4;74.4
53699;BME280;39591;53.952;27.612;2022-09-21T01:03:53;1009.6;;;11.4;74.6
53699;BME280;39591;53.952;27.612;2022-09-21T01:08:45;1009.6;;;11.3;74.8
53699;BME280;39591;53.952;27.612;2022-09-21T01:14:06;1009.6;;;11.4;74.8
53699;BME280;39591;53.952;27.612;2022-09-21T01:18:57;1009.6;;;11.5;74.7
53699;BME280;39591;53.952;27.612;2022-09-21T01:24:13;1009.5;;;11.5;74.7
53699;BME280;39591;53.952;27.612;2022-09-21T01:29:10;1009.6;;;11.6;74.6
53699;BME280;39591;53.952;27.612;2022-09-21T01:33:43;1009.6;;;11.6;74.7
53699;BME280;39591;53.952;27.612;2022-09-21T01:38:25;1009.6;;;11.7;74.4
53699;BME280;39591;53.952;27.612;2022-09-21T01:43:34;1009.6;;;11.7;74.5
53699;BME280;39591;53.952;27.612;2022-09-21T01:49:05;1009.7;;;11.7;74.8
53699;BME280;39591;53.952;27.612;2022-09-21T01:54:04;1009.7;;;11.7;74.6
53699;BME280;39591;53.952;27.612;2022-09-21T01:58:51;1009.7;;;11.8;74.4
53699;BME280;39591;53.952;27.612;2022-09-21T02:04:07;1009.7;;;11.8;74.3
53699;BME280;39591;53.952;27.612;2022-09-21T02:08:59;1009.7;;;11.8;74.3
53699;BME280;39591;53.952;27.612;2022-09-21T02:13:44;1009.8;;;11.8;74.3
53699;BME280;39591;53.952;27.612;2022-09-21T02:18:42;1009.8;;;11.8;74.3
53699;BME280;39591;53.952;27.612;2022-09-21T02:23:24;1009.9;;;11.8;74.2
53699;BME280;39591;53.952;27.612;2022-09-21T02:28:37;1009.9;;;11.8;74.2
53699;BME280;39591;53.952;27.612;2022-09-21T02:33:58;1009.9;;;11.7;74.3
53699;BME280;39591;53.952;27.612;2022-09-21T02:38:47;1010;;;11.6;74.3
53699;BME280;39591;53.952;27.612;2022-09-21T02:44:12;1010;;;11.5;74.4
53699;BME280;39591;53.952;27.612;2022-09-21T02:49:00;1010;;;11.5;74.3
53699;BME280;39591;53.952;27.612;2022-09-21T02:53:47;1010;;;11.5;74.3
53699;BME280;39591;53.952;27.612;2022-09-21T02:58:38;1010.1;;;11.5;74.5
53699;BME280;39591;53.952;27.612;2022-09-21T03:03:57;1010.1;;;11.5;74.3
53699;BME280;39591;53.952;27.612;2022-09-21T03:09:09;1010.1;;;11.5;74.3
53699;BME280;39591;53.952;27.612;2022-09-21T03:13:23;1010.1;;;11.4;74.3
53699;BME280;39591;53.952;27.612;2022-09-21T03:18:23;1010.1;;;11.4;74.3
53699;BME280;39591;53.952;27.612;2022-09-21T03:23:23;1010.1;;;11.3;74.5
53699;BME280;39591;53.952;27.612;2022-09-21T03:28:57;1010.1;;;11.2;74.7
53699;BME280;39591;53.952;27.612;2022-09-21T03:33:47;1010.1;;;11.2;74.8
53699;BME280;39591;53.952;27.612;2022-09-21T03:38:37;1010.1;;;11.2;74.8
53699;BME280;39591;53.952;27.612;2022-09-21T03:43:55;1010.2;;;11.2;74.7
53699;BME280;39591;53.952;27.612;2022-09-21T03:48:57;1010.2;;;11.3;74.5
53699;BME280;39591;53.952;27.612;2022-09-21T03:53:43;1010.2;;;11.3;74.5
53699;BME280;39591;53.952;27.612;2022-09-21T03:59:09;1010.3;;;11.3;74.5
53699;BME280;39591;53.952;27.612;2022-09-21T04:03:23;1010.3;;;11.3;74.5
53699;BME280;39591;53.952;27.612;2022-09-21T04:08:33;1010.3;;;11.4;74.4
53699;BME280;39591;53.952;27.612;2022-09-21T04:13:33;1010.3;;;11.4;74.4
53699;BME280;39591;53.952;27.612;2022-09-21T04:19:07;1010.3;;;11.4;74.3
53699;BME280;39591;53.952;27.612;2022-09-21T04:24:07;1010.2;;;11.4;74.4
53699;BME280;39591;53.952;27.612;2022-09-21T04:28:43;1010.3;;;11.3;74.7
53699;BME280;39591;53.952;27.612;2022-09-21T04:34:01;1010.3;;;11.4;74.6
53699;BME280;39591;53.952;27.612;2022-09-21T04:38:59;1010.3;;;11.4;74.4
53699;BME280;39591;53.952;27.612;2022-09-21T04:43:35;1010.3;;;11.4;74.4
53699;BME280;39591;53.952;27.612;2022-09-21T04:48:55;1010.4;;;11.3;74.7
53699;BME280;39591;53.952;27.612;2022-09-21T04:53:37;1010.4;;;11.3;74.7
53699;BME280;39591;53.952;27.612;2022-09-21T04:58:23;1010.4;;;11.4;74.7
53699;BME280;39591;53.952;27.612;2022-09-21T05:03:23;1010.4;;;11.6;74.4
53699;BME280;39591;53.952;27.612;2022-09-21T05:08:43;1010.5;;;11.7;73.9
53699;BME280;39591;53.952;27.612;2022-09-21T05:14:09;1010.5;;;11.7;73.8
53699;BME280;39591;53.952;27.612;2022-09-21T05:19:09;1010.5;;;11.8;73.7
53699;BME280;39591;53.952;27.612;2022-09-21T05:23:47;1010.4;;;11.9;73.3
53699;BME280;39591;53.952;27.612;2022-09-21T05:28:45;1010.4;;;12.1;72.9
53699;BME280;39591;53.952;27.612;2022-09-21T05:33:57;1010.4;;;12.3;72.4
53699;BME280;39591;53.952;27.612;2022-09-21T05:39:09;1010.4;;;12.4;72
53699;BME280;39591;53.952;27.612;2022-09-21T05:43:45;1010.5;;;12.5;71.8
53699;BME280;39591;53.952;27.612;2022-09-21T05:48:25;1010.5;;;12.6;71.5
53699;BME280;39591;53.952;27.612;2022-09-21T05:53:41;1010.5;;;12.7;71.1
53699;BME280;39591;53.952;27.612;2022-09-21T05:59:01;1010.5;;;12.8;71.2
53699;BME280;39591;53.952;27.612;2022-09-21T06:03:47;1010.5;;;12.9;70.9
53699;BME280;39591;53.952;27.612;2022-09-21T06:08:59;1010.5;;;13;70.8
53699;BME280;39591;53.952;27.612;2022-09-21T06:13:57;1010.5;;;13.3;70.4
53699;BME280;39591;53.952;27.612;2022-09-21T06:18:59;1010.5;;;13.5;69.8
53699;BME280;39591;53.952;27.612;2022-09-21T06:24:09;1010.6;;;13.6;69.3
53699;BME280;39591;53.952;27.612;2022-09-21T06:29:11;1010.6;;;13.6;68.7
53699;BME280;39591;53.952;27.612;2022-09-21T06:33:41;1010.6;;;13.7;67.8
53699;BME280;39591;53.952;27.612;2022-09-21T06:38:35;1010.6;;;13.8;67.5
53699;BME280;39591;53.952;27.612;2022-09-21T06:43:35;1010.5;;;14;67.4
53699;BME280;39591;53.952;27.612;2022-09-21T06:49:09;1010.5;;;14.1;67
53699;BME280;39591;53.952;27.612;2022-09-21T06:54:07;1010.5;;;14.4;66.4
53699;BME280;39591;53.952;27.612;2022-09-21T06:58:45;1010.5;;;14.5;66.3
53699;BME280;39591;53.952;27.612;2022-09-21T07:04:09;1010.6;;;14.2;66.5
53699;BME280;39591;53.952;27.612;2022-09-21T07:08:57;1010.6;;;13.9;67.4
53699;BME280;39591;53.952;27.612;2022-09-21T07:13:45;1010.7;;;13.5;68.6
53699;BME280;39591;53.952;27.612;2022-09-21T07:18:35;1010.7;;;13.3;69.1
53699;BME280;39591;53.952;27.612;2022-09-21T07:23:59;1010.6;;;13.1;69.2
53699;BME280;39591;53.952;27.612;2022-09-21T07:28:35;1010.7;;;13.1;68
53699;BME280;39591;53.952;27.612;2022-09-21T07:33:35;1010.7;;;13.3;67.8
53699;BME280;39591;53.952;27.612;2022-09-21T07:38:36;1010.7;;;13.7;66.9
53699;BME280;39591;53.952;27.612;2022-09-21T07:44:11;1010.7;;;14;67
53699;BME280;39591;53.952;27.612;2022-09-21T07:48:59;1010.7;;;14.2;66.4
53699;BME280;39591;53.952;27.612;2022-09-21T07:54:12;1010.8;;;14.4;65.9
53699;BME280;39591;53.952;27.612;2022-09-21T07:58:49;1010.8;;;14.5;65.5
53699;BME280;39591;53.952;27.612;2022-09-21T08:03:55;1010.8;;;14.8;65.2
53699;BME280;39591;53.952;27.612;2022-09-21T08:09:09;1010.9;;;14.9;64.5
53699;BME280;39591;53.952;27.612;2022-09-21T08:13:23;1010.9;;;15.1;63.4
53699;BME280;39591;53.952;27.612;2022-09-21T08:18:35;1010.8;;;15.2;62.5
53699;BME280;39591;53.952;27.612;2022-09-21T08:23:23;1010.9;;;15.4;62.6
53699;BME280;39591;53.952;27.612;2022-09-21T08:28:23;1010.9;;;15.7;62.8
53699;BME280;39591;53.952;27.612;2022-09-21T08:33:47;1010.9;;;16;62.2
53699;BME280;39591;53.952;27.612;2022-09-21T08:38:57;1010.9;;;16.1;61.3
53699;BME280;39591;53.952;27.612;2022-09-21T08:43:59;1010.9;;;16.2;61
53699;BME280;39591;53.952;27.612;2022-09-21T08:48:58;1010.9;;;16.1;60.3
53699;BME280;39591;53.952;27.612;2022-09-21T08:53:40;1010.9;;;16.3;59.7
53699;BME280;39591;53.952;27.612;2022-09-21T08:59:11;1010.9;;;16.4;59.4
53699;BME280;39591;53.952;27.612;2022-09-21T09:03:38;1010.9;;;16.6;58.8
53699;BME280;39591;53.952;27.612;2022-09-21T09:19:26;1010.9;;;16.6;58.5
53699;BME280;39591;53.952;27.612;2022-09-21T09:24:10;1010.9;;;16.5;58.8
53699;BME280;39591;53.952;27.612;2022-09-21T09:28:51;1010.9;;;16.5;58.8
53699;BME280;39591;53.952;27.612;2022-09-21T09:39:00;1010.9;;;16.4;57.6
53699;BME280;39591;53.952;27.612;2022-09-21T09:44:47;1010.8;;;16.4;57.5
53699;BME280;39591;53.952;27.612;2022-09-21T09:49:04;1010.8;;;16.5;56.6
53699;BME280;39591;53.952;27.612;2022-09-21T09:53:45;1010.9;;;16.5;56.6
53699;BME280;39591;53.952;27.612;2022-09-21T09:59:02;1010.9;;;16.6;56.7
53699;BME280;39591;53.952;27.612;2022-09-21T10:03:24;1010.9;;;16.8;56
53699;BME280;39591;53.952;27.612;2022-09-21T10:08:47;1010.9;;;16.8;55.3
53699;BME280;39591;53.952;27.612;2022-09-21T10:13:47;1010.9;;;16.8;55.6
53699;BME280;39591;53.952;27.612;2022-09-21T10:19:13;1010.9;;;16.8;55.7
53699;BME280;39591;53.952;27.612;2022-09-21T10:24:14;1010.8;;;16.7;56.2
53699;BME280;39591;53.952;27.612;2022-09-21T10:28:59;1010.8;;;16.7;55.8
53699;BME280;39591;53.952;27.612;2022-09-21T10:34:11;1010.8;;;16.5;56
53699;BME280;39591;53.952;27.612;2022-09-21T10:39:20;1010.8;;;16.3;54.8
53699;BME280;39591;53.952;27.612;2022-09-21T10:44:13;1010.8;;;16.2;54.3
53699;BME280;39591;53.952;27.612;2022-09-21T10:48:55;1010.9;;;16.2;54.5
53699;BME280;39591;53.952;27.612;2022-09-21T10:53:37;1010.8;;;16.3;53.9
53699;BME280;39591;53.952;27.612;2022-09-21T10:59:09;1010.7;;;16.3;53.9
53699;BME280;39591;53.952;27.612;2022-09-21T11:03:59;1010.7;;;16.2;53.4
53699;BME280;39591;53.952;27.612;2022-09-21T11:08:27;1010.7;;;16.2;53.8
53699;BME280;39591;53.952;27.612;2022-09-21T11:13:59;1010.7;;;16.1;54.4
53699;BME280;39591;53.952;27.612;2022-09-21T11:19:13;1010.6;;;16;54.3
53699;BME280;39591;53.952;27.612;2022-09-21T11:23:47;1010.7;;;15.8;54.7
53699;BME280;39591;53.952;27.612;2022-09-21T11:28:25;1010.6;;;15.6;54.8
53699;BME280;39591;53.952;27.612;2022-09-21T11:38:54;1010.5;;;15.7;54.8
53699;BME280;39591;53.952;27.612;2022-09-21T11:44:36;1010.4;;;16.1;53.7
53699;BME280;39591;53.952;27.612;2022-09-21T11:49:14;1010.4;;;16.2;53
53699;BME280;39591;53.952;27.612;2022-09-21T11:54:08;1010.4;;;16.3;52.6
53699;BME280;39591;53.952;27.612;2022-09-21T11:59:14;1010.4;;;16.3;52.6
53699;BME280;39591;53.952;27.612;2022-09-21T12:03:36;1010.3;;;16.7;52.2
53699;BME280;39591;53.952;27.612;2022-09-21T12:09:02;1010.3;;;16.9;51.1
53699;BME280;39591;53.952;27.612;2022-09-21T12:14:27;1010.3;;;17.2;50.3
53699;BME280;39591;53.952;27.612;2022-09-21T12:18:54;1010.2;;;17.9;48.9
53699;BME280;39591;53.952;27.612;2022-09-21T12:23:28;1010.4;;;17.6;46.8
53699;BME280;39591;53.952;27.612;2022-09-21T12:28:24;1010.6;;;16.8;46.5
53699;BME280;39591;53.952;27.612;2022-09-21T12:33:51;1010.7;;;15.9;47.3
53699;BME280;39591;53.952;27.612;2022-09-21T12:38:49;1010.7;;;15.1;50
53699;BME280;39591;53.952;27.612;2022-09-21T12:44:14;1010.7;;;14.6;51.6
53699;BME280;39591;53.952;27.612;2022-09-21T12:48:49;1010.7;;;14.3;51.7
53699;BME280;39591;53.952;27.612;2022-09-21T12:54:27;1010.7;;;14;53.4
53699;BME280;39591;53.952;27.612;2022-09-21T13:00:08;1010.7;;;13.8;55.3
53699;BME280;39591;53.952;27.612;2022-09-21T13:05:07;1010.8;;;13.7;56.8
53699;BME280;39591;53.952;27.612;2022-09-21T13:09:11;1010.8;;;13.7;57.2
53699;BME280;39591;53.952;27.612;2022-09-21T13:14:11;1010.8;;;13.8;57.9
53699;BME280;39591;53.952;27.612;2022-09-21T13:18:37;1010.8;;;14.1;57.9
53699;BME280;39591;53.952;27.612;2022-09-21T13:23:51;1010.7;;;14.2;58.3
53699;BME280;39591;53.952;27.612;2022-09-21T13:29:23;1010.7;;;14.3;58.3
53699;BME280;39591;53.952;27.612;2022-09-21T13:34:55;1010.7;;;14.2;58.3
53699;BME280;39591;53.952;27.612;2022-09-21T13:44:00;1010.6;;;14.1;58
53699;BME280;39591;53.952;27.612;2022-09-21T13:48:55;1010.5;;;14.1;58.2
53699;BME280;39591;53.952;27.612;2022-09-21T13:53:45;1010.6;;;14.3;58.8
53699;BME280;39591;53.952;27.612;2022-09-21T13:58:39;1010.6;;;14.6;58.9
53699;BME280;39591;53.952;27.612;2022-09-21T14:04:14;1010.6;;;14.7;58.6
53699;BME280;39591;53.952;27.612;2022-09-21T14:08:36;1010.7;;;14.9;58.3
53699;BME280;39591;53.952;27.612;2022-09-21T14:14:04;1010.7;;;15.1;58.3
53699;BME280;39591;53.952;27.612;2022-09-21T14:18:43;1010.8;;;15.2;57.8
53699;BME280;39591;53.952;27.612;2022-09-21T14:24:15;1010.7;;;15.4;57.4
53699;BME280;39591;53.952;27.612;2022-09-21T14:29:12;1010.7;;;15.9;56.3
53699;BME280;39591;53.952;27.612;2022-09-21T14:33:51;1010.7;;;16.1;55.6
53699;BME280;39591;53.952;27.612;2022-09-21T14:39:05;1010.7;;;16.2;55.5
53699;BME280;39591;53.952;27.612;2022-09-21T14:43:57;1010.7;;;16.4;55.5
53699;BME280;39591;53.952;27.612;2022-09-21T14:48:49;1010.7;;;16.3;55.7
53699;BME280;39591;53.952;27.612;2022-09-21T14:54:03;1010.7;;;16.1;56.5
53699;BME280;39591;53.952;27.612;2022-09-21T14:58:27;1010.8;;;15.8;56.5
53699;BME280;39591;53.952;27.612;2022-09-21T15:08:46;1010.8;;;15.4;56.2
53699;BME280;39591;53.952;27.612;2022-09-21T15:19:36;1010.9;;;15.3;59.2
53699;BME280;39591;53.952;27.612;2022-09-21T15:23:55;1011.1;;;15.1;60.4
53699;BME280;39591;53.952;27.612;2022-09-21T15:28:37;1011.4;;;14.8;58.9
53699;BME280;39591;53.952;27.612;2022-09-21T15:33:43;1011.3;;;14.3;57.7
53699;BME280;39591;53.952;27.612;2022-09-21T15:38:51;1011.4;;;13.7;59.1
53699;BME280;39591;53.952;27.612;2022-09-21T15:44:21;1011.6;;;13.3;60.1
53699;BME280;39591;53.952;27.612;2022-09-21T15:48:24;1011.8;;;13.1;62.2
53699;BME280;39591;53.952;27.612;2022-09-21T15:53:38;1011.9;;;12.7;64.3
53699;BME280;39591;53.952;27.612;2022-09-21T15:58:28;1011.8;;;12.5;64.6
53699;BME280;39591;53.952;27.612;2022-09-21T16:04:02;1011.8;;;12.3;65.1
53699;BME280;39591;53.952;27.612;2022-09-21T16:08:32;1011.8;;;12.2;65.9
53699;BME280;39591;53.952;27.612;2022-09-21T16:13:58;1011.9;;;12.1;66.1
53699;BME280;39591;53.952;27.612;2022-09-21T16:18:57;1011.9;;;12.1;66.4
53699;BME280;39591;53.952;27.612;2022-09-21T16:23:55;1011.8;;;12.1;66.5
53699;BME280;39591;53.952;27.612;2022-09-21T16:28:55;1011.8;;;12.1;66.6
53699;BME280;39591;53.952;27.612;2022-09-21T16:34:39;1011.9;;;12;66.8
53699;BME280;39591;53.952;27.612;2022-09-21T16:38:23;1011.9;;;11.9;66.9
53699;BME280;39591;53.952;27.612;2022-09-21T16:43:35;1012;;;11.8;67.2
53699;BME280;39591;53.952;27.612;2022-09-21T16:48:23;1012.1;;;11.7;67.8
53699;BME280;39591;53.952;27.612;2022-09-21T16:53:59;1012.1;;;11.6;68.5
53699;BME280;39591;53.952;27.612;2022-09-21T16:59:14;1012.1;;;11.5;69
53699;BME280;39591;53.952;27.612;2022-09-21T17:03:47;1012.2;;;11.4;69.9
53699;BME280;39591;53.952;27.612;2022-09-21T17:09:09;1012.1;;;11.3;70.5
53699;BME280;39591;53.952;27.612;2022-09-21T17:13:57;1012.1;;;11.3;70.7
53699;BME280;39591;53.952;27.612;2022-09-21T17:18:43;1012.1;;;11.4;70.8
53699;BME280;39591;53.952;27.612;2022-09-21T17:23:45;1012.1;;;11.4;70.7
53699;BME280;39591;53.952;27.612;2022-09-21T17:28:23;1012.1;;;11.4;70.9
53699;BME280;39591;53.952;27.612;2022-09-21T17:33:47;1012.2;;;11.4;70.9
53699;BME280;39591;53.952;27.612;2022-09-21T17:38:35;1012.2;;;11.3;70.9
53699;BME280;39591;53.952;27.612;2022-09-21T17:43:49;1012.2;;;11.3;70.7
53699;BME280;39591;53.952;27.612;2022-09-21T17:49:08;1012.3;;;11.3;70.8
53699;BME280;39591;53.952;27.612;2022-09-21T17:53:55;1012.4;;;11.3;71.1
53699;BME280;39591;53.952;27.612;2022-09-21T17:59:03;1012.4;;;11.2;71.2
53699;BME280;39591;53.952;27.612;2022-09-21T18:03:41;1012.4;;;11.2;71.3
53699;BME280;39591;53.952;27.612;2022-09-21T18:08:57;1012.5;;;11.2;71.5
53699;BME280;39591;53.952;27.612;2022-09-21T18:14:23;1012.5;;;11.2;71.6
53699;BME280;39591;53.952;27.612;2022-09-21T18:18:38;1012.5;;;11.2;71.7
53699;BME280;39591;53.952;27.612;2022-09-21T18:24:41;1012.5;;;11.1;72
53699;BME280;39591;53.952;27.612;2022-09-21T18:28:32;1012.5;;;11;72.2
53699;BME280;39591;53.952;27.612;2022-09-21T18:34:02;1012.5;;;11;72.3
53699;BME280;39591;53.952;27.612;2022-09-21T18:38:34;1012.5;;;11;72.5
53699;BME280;39591;53.952;27.612;2022-09-21T18:43:43;1012.5;;;11;72.5
53699;BME280;39591;53.952;27.612;2022-09-21T18:49:01;1012.5;;;11;72.5
53699;BME280;39591;53.952;27.612;2022-09-21T18:53:57;1012.4;;;11;72.5
53699;BME280;39591;53.952;27.612;2022-09-21T18:58:57;1012.4;;;11;72.6
53699;BME280;39591;53.952;27.612;2022-09-21T19:03:51;1012.4;;;11;72.5
53699;BME280;39591;53.952;27.612;2022-09-21T19:09:28;1012.4;;;10.9;72.6
53699;BME280;39591;53.952;27.612;2022-09-21T19:13:39;1012.4;;;10.8;72.8
53699;BME280;39591;53.952;27.612;2022-09-21T19:18:44;1012.4;;;10.8;72.7
53699;BME280;39591;53.952;27.612;2022-09-21T19:24:13;1012.4;;;10.7;72.8
53699;BME280;39591;53.952;27.612;2022-09-21T19:29:02;1012.3;;;10.7;72.7
53699;BME280;39591;53.952;27.612;2022-09-21T19:34:09;1012.3;;;10.7;72.8
53699;BME280;39591;53.952;27.612;2022-09-21T19:38:45;1012.4;;;10.7;72.9
53699;BME280;39591;53.952;27.612;2022-09-21T19:43:28;1012.4;;;10.7;73
53699;BME280;39591;53.952;27.612;2022-09-21T19:49:11;1012.4;;;10.7;73.3
53699;BME280;39591;53.952;27.612;2022-09-21T19:53:53;1012.4;;;10.6;73.5
53699;BME280;39591;53.952;27.612;2022-09-21T19:58:45;1012.5;;;10.6;73.6
53699;BME280;39591;53.952;27.612;2022-09-21T20:03:36;1012.5;;;10.6;73.6
53699;BME280;39591;53.952;27.612;2022-09-21T20:09:20;1012.5;;;10.6;73.5
53699;BME280;39591;53.952;27.612;2022-09-21T20:14:20;1012.5;;;10.6;73.5
53699;BME280;39591;53.952;27.612;2022-09-21T20:18:49;1012.5;;;10.6;73.5
53699;BME280;39591;53.952;27.612;2022-09-21T20:24:10;1012.5;;;10.6;73.5
53699;BME280;39591;53.952;27.612;2022-09-21T20:29:06;1012.4;;;10.6;73.4
53699;BME280;39591;53.952;27.612;2022-09-21T20:33:47;1012.5;;;10.6;73.4
53699;BME280;39591;53.952;27.612;2022-09-21T20:39:01;1012.5;;;10.7;73.3
53699;BME280;39591;53.952;27.612;2022-09-21T20:44:03;1012.5;;;10.7;73.3
53699;BME280;39591;53.952;27.612;2022-09-21T20:49:05;1012.5;;;10.7;73.3
53699;BME280;39591;53.952;27.612;2022-09-21T20:53:35;1012.5;;;10.6;73.5
53699;BME280;39591;53.952;27.612;2022-09-21T20:58:35;1012.5;;;10.7;73.4
53699;BME280;39591;53.952;27.612;2022-09-21T21:04:01;1012.5;;;10.6;73.4
53699;BME280;39591;53.952;27.612;2022-09-21T21:08:49;1012.6;;;10.6;73.3
53699;BME280;39591;53.952;27.612;2022-09-21T21:13:23;1012.5;;;10.6;73.4
53699;BME280;39591;53.952;27.612;2022-09-21T21:18:53;1012.5;;;10.6;73.3
53699;BME280;39591;53.952;27.612;2022-09-21T21:23:53;1012.5;;;10.5;73.3
53699;BME280;39591;53.952;27.612;2022-09-21T21:28:53;1012.5;;;10.5;73.3
53699;BME280;39591;53.952;27.612;2022-09-21T21:33:53;1012.5;;;10.5;73.4
53699;BME280;39591;53.952;27.612;2022-09-21T21:38:55;1012.5;;;10.5;73.3
53699;BME280;39591;53.952;27.612;2022-09-21T21:43:47;1012.5;;;10.5;73.2
53699;BME280;39591;53.952;27.612;2022-09-21T21:48:31;1012.4;;;10.5;73.2
53699;BME280;39591;53.952;27.612;2022-09-21T21:54:05;1012.4;;;10.6;72.9
53699;BME280;39591;53.952;27.612;2022-09-21T21:58:32;1012.4;;;10.7;72.7
53699;BME280;39591;53.952;27.612;2022-09-21T22:04:05;1012.5;;;10.7;72.7
53699;BME280;39591;53.952;27.612;2022-09-21T22:08:45;1012.5;;;10.7;72.9
53699;BME280;39591;53.952;27.612;2022-09-21T22:13:56;1012.5;;;10.6;73.1
53699;BME280;39591;53.952;27.612;2022-09-21T22:19:06;1012.6;;;10.6;73.1
53699;BME280;39591;53.952;27.612;2022-09-21T22:23:46;1012.5;;;10.5;73.1
53699;BME280;39591;53.952;27.612;2022-09-21T22:28:46;1012.5;;;10.5;73.5
53699;BME280;39591;53.952;27.612;2022-09-21T22:33:35;1012.4;;;10.5;73.6
53699;BME280;39591;53.952;27.612;2022-09-21T22:38:23;1012.4;;;10.5;73.7
53699;BME280;39591;53.952;27.612;2022-09-21T22:43:44;1012.4;;;10.5;73.7
53699;BME280;39591;53.952;27.612;2022-09-21T22:48:45;1012.3;;;10.5;73.8
53699;BME280;39591;53.952;27.612;2022-09-21T22:53:57;1012.4;;;10.5;73.8
53699;BME280;39591;53.952;27.612;2022-09-21T22:59:02;1012.4;;;10.5;74
53699;BME280;39591;53.952;27.612;2022-09-21T23:03:23;1012.4;;;10.4;74.2
53699;BME280;39591;53.952;27.612;2022-09-21T23:08:58;1012.4;;;10.4;74.2
53699;BME280;39591;53.952;27.612;2022-09-21T23:13:52;1012.4;;;10.4;74.2
53699;BME280;39591;53.952;27.612;2022-09-21T23:19:01;1012.5;;;10.4;74.1
53699;BME280;39591;53.952;27.612;2022-09-21T23:23:35;1012.4;;;10.3;74.1
53699;BME280;39591;53.952;27.612;2022-09-21T23:28:38;1012.4;;;10.3;74.1
53699;BME280;39591;53.952;27.612;2022-09-21T23:33:35;1012.3;;;10.2;74.4
53699;BME280;39591;53.952;27.612;2022-09-21T23:38:59;1012.2;;;10.2;74.4
53699;BME280;39591;53.952;27.612;2022-09-21T23:43:45;1012.2;;;10.3;74.4
53699;BME280;39591;53.952;27.612;2022-09-21T23:48:23;1012.3;;;10.3;74.3
53699;BME280;39591;53.952;27.612;2022-09-21T23:53:56;1012.3;;;10.3;74.3
53699;BME280;39591;53.952;27.612;2022-09-21T23:59:03;1012.3;;;10.3;74.3
